Strona główna
METAR-TAF:

METAR-TAF

Lotnisko :

Wilmington, Ohio, Stany Zjednoczone

Szerokość geograficzna: 39-25-42N, Długość geograficzna: 083-46-45W, wysokość: 328 m

Aktualna obserwacja pogody

Raport powstał 52 minut temu, godzina 06:54 UTC
Wiatr 9 kt od północny zachód
Temperatura -10°C
Wilgotność 79%
Ciśnienie 1029 hPa
Widzialność: 16.1 km
Zachmurzenie całkowite na wysokości 1900 ft

METAR: KILN 200654Z AUTO 31009KT 10SM OVC019 M10/M13 A3040 RMK AO2 SNE19 SLP336 P0000 T11001128

czas: 02:46 (07:46 UTC)

Prognoza

Raport powstał 28 minut temu, godzina 07:18 UTC
Prognoza ważna od 20 godzina 07 UTC do 21 godzina 06 UTC
Wiatr 8 kt od północny zachód
Widzialność: 10 km
Zachmurzenie całkowite na wysokości 1600 ft
słaby śnieg
Od 20 godzina 1100 UTC
Wiatr 6 kt od północno-północny zachód
Widzialność: 10 km
Rozproszone chmury na wysokości 4000 ft
Od 20 godzina 1600 UTC
Wiatr 5 kt od północ
Widzialność: 10 km
bezchmurnie

TAF: KILN 200718Z 2007/2106 31008KT P6SM -SN OVC016 FM201100 33006KT P6SM SCT040 FM201600 35005KT P6SM SKC

Obserwacja i prognoza pogody dla ponad 4000 lotnisk (raport METAR i TAF).

Dostępne stacje oznaczono żółtymi i czerwonymi punktami na mapie.

Najedź kursorem aby zobaczyć nazwę stacji.

Kliknij aby zobaczyć obserwacje i prognozy pogody.

Aby zmienić mapę: kliknij na zielony przycisk z czarnym krzyżykiem, aby powiększyć; na zielony przycisk z myślnikiem, aby pomniejszyć; na zielone strzałki, aby przejść do map sąsiednich.


METAR-TAF: